Time;durP1;ratioP1;P1;durP2;ratioP2;P2;SDS_P1;SDS_P2;PMS_P1;PMS_P2;Temp;Humidity;BMP_temperature;BMP_pressure;BME280_temperature;BME280_humidity;BME280_pressure;Samples;Min_cycle;Max_cycle;Signal;HPM_P1;HPM_P2
2021/12/30 00:01:20;;;;;;;0.70;0.70;;;16.60;69.50;;;;;;4948958;28;43975;-69
2021/12/30 00:03:50;;;;;;;0.50;0.50;;;16.60;69.50;;;;;;4968595;28;43927;-68
2021/12/30 00:06:21;;;;;;;0.67;0.67;;;16.60;69.60;;;;;;4961983;28;43922;-68
2021/12/30 00:08:50;;;;;;;0.60;0.60;;;16.60;69.70;;;;;;4962697;28;43902;-68
2021/12/30 00:11:17;;;;;;;0.60;0.60;;;16.70;69.90;;;;;;4968328;28;43939;-69
2021/12/30 00:13:45;;;;;;;0.60;0.60;;;16.80;69.60;;;;;;4968483;28;43997;-68
2021/12/30 00:16:13;;;;;;;0.53;0.53;;;16.90;69.20;;;;;;4983004;28;46165;-68
2021/12/30 00:18:41;;;;;;;0.50;0.50;;;17.00;68.70;;;;;;4967765;28;43987;-69
2021/12/30 00:21:11;;;;;;;0.70;0.70;;;17.10;68.20;;;;;;4967973;28;43995;-69
2021/12/30 00:23:39;;;;;;;0.60;0.60;;;17.30;67.90;;;;;;4967920;28;43908;-68
2021/12/30 00:26:07;;;;;;;0.60;0.60;;;17.20;67.80;;;;;;4982899;28;46582;-68
2021/12/30 00:28:35;;;;;;;0.63;0.63;;;17.10;67.90;;;;;;4968043;28;43482;-69
2021/12/30 00:31:04;;;;;;;0.60;0.60;;;17.10;68.30;;;;;;4968115;28;43956;-68
2021/12/30 00:33:34;;;;;;;0.70;0.70;;;17.00;68.40;;;;;;4966488;28;43556;-67
2021/12/30 00:36:03;;;;;;;0.67;0.67;;;16.90;68.70;;;;;;4967397;28;43930;-69
2021/12/30 00:38:32;;;;;;;0.60;0.60;;;16.90;69.00;;;;;;4966091;28;46154;-68
2021/12/30 00:41:00;;;;;;;0.53;0.53;;;16.80;69.00;;;;;;4967544;28;44031;-68
2021/12/30 00:43:28;;;;;;;0.50;0.50;;;16.80;69.20;;;;;;4966893;28;43938;-68
2021/12/30 00:45:56;;;;;;;0.70;0.70;;;16.70;69.20;;;;;;4967343;28;43905;-69
2021/12/30 00:48:25;;;;;;;0.57;0.57;;;16.70;69.30;;;;;;4967207;28;43935;-68
2021/12/30 00:50:53;;;;;;;0.70;0.70;;;16.70;69.60;;;;;;4967382;28;43914;-68
2021/12/30 00:53:21;;;;;;;0.70;0.70;;;16.80;69.30;;;;;;4982707;28;44007;-68
2021/12/30 00:55:50;;;;;;;0.50;0.50;;;16.90;68.90;;;;;;4967561;28;43891;-68
2021/12/30 00:58:18;;;;;;;0.60;0.60;;;17.00;68.70;;;;;;4967542;28;44076;-68
2021/12/30 01:00:46;;;;;;;0.47;0.47;;;17.00;68.70;;;;;;4966927;28;43955;-68
2021/12/30 01:03:15;;;;;;;0.53;0.53;;;16.90;68.70;;;;;;4967664;28;43972;-68
2021/12/30 01:05:44;;;;;;;0.60;0.60;;;16.90;68.90;;;;;;4967654;28;44334;-68
2021/12/30 01:08:14;;;;;;;0.60;0.60;;;16.80;69.00;;;;;;4967418;28;43941;-68
2021/12/30 01:10:42;;;;;;;0.70;0.70;;;16.80;69.20;;;;;;4966125;28;43898;-69
2021/12/30 01:13:17;;;;;;;0.60;0.60;;;16.80;69.30;;;;;;4966328;28;44264;-67
2021/12/30 01:15:49;;;;;;;0.50;0.50;;;16.70;69.30;;;;;;4967446;28;43970;-68
2021/12/30 01:18:29;;;;;;;0.50;0.50;;;16.70;69.40;;;;;;4967404;28;43962;-69
2021/12/30 01:20:57;;;;;;;0.70;0.70;;;16.70;69.50;;;;;;4967541;28;43497;-69
2021/12/30 01:23:25;;;;;;;0.40;0.40;;;16.70;69.60;;;;;;4967596;28;44108;-68
2021/12/30 01:25:54;;;;;;;0.63;0.63;;;16.70;69.60;;;;;;4967104;28;43926;-68
2021/12/30 01:28:23;;;;;;;0.60;0.60;;;16.70;69.80;;;;;;4967345;28;44028;-68
2021/12/30 01:30:51;;;;;;;0.53;0.53;;;16.70;69.70;;;;;;4967000;28;43851;-67
2021/12/30 01:33:19;;;;;;;0.60;0.60;;;16.80;69.40;;;;;;4967501;28;43926;-68
2021/12/30 01:35:47;;;;;;;0.60;0.60;;;17.00;69.10;;;;;;4967047;28;43959;-69
2021/12/30 01:38:16;;;;;;;0.60;0.60;;;17.10;68.60;;;;;;4965632;28;44843;-68
2021/12/30 01:40:45;;;;;;;0.60;0.60;;;17.20;68.10;;;;;;4960960;28;43941;-68
2021/12/30 01:43:13;;;;;;;0.50;0.50;;;17.20;67.90;;;;;;4948321;28;44177;-69
2021/12/30 01:45:43;;;;;;;0.60;0.60;;;17.20;68.00;;;;;;4960542;28;45447;-68
2021/12/30 01:48:11;;;;;;;0.70;0.70;;;17.10;68.20;;;;;;4961181;28;43986;-68
2021/12/30 01:50:39;;;;;;;0.40;0.40;;;17.00;68.30;;;;;;4967101;28;44000;-68
2021/12/30 01:53:07;;;;;;;0.50;0.50;;;16.90;68.60;;;;;;4981937;28;43926;-68
2021/12/30 01:55:36;;;;;;;0.63;0.63;;;16.90;68.90;;;;;;4965980;28;45813;-69
2021/12/30 01:58:04;;;;;;;0.50;0.50;;;16.80;68.90;;;;;;4985097;28;45435;-68
2021/12/30 02:00:32;;;;;;;0.67;0.67;;;16.80;69.10;;;;;;4970461;28;44023;-69
2021/12/30 02:03:02;;;;;;;0.50;0.50;;;16.80;69.20;;;;;;4985000;28;44049;-68
2021/12/30 02:05:32;;;;;;;0.47;0.47;;;16.70;69.30;;;;;;4969602;28;43966;-69
2021/12/30 02:08:00;;;;;;;0.70;0.70;;;16.70;70.20;;;;;;4969711;28;44020;-69
2021/12/30 02:10:28;;;;;;;0.60;0.60;;;16.80;69.50;;;;;;4969964;28;43880;-69
2021/12/30 02:12:56;;;;;;;0.60;0.60;;;16.80;69.10;;;;;;4969971;28;43851;-69
2021/12/30 02:15:24;;;;;;;0.20;0.20;;;16.90;68.80;;;;;;4985144;28;44260;-69
2021/12/30 02:17:54;;;;;;;0.50;0.50;;;17.00;68.70;;;;;;4969889;28;43849;-68
2021/12/30 02:20:41;;;;;;;0.40;0.40;;;17.00;68.70;;;;;;4969981;28;44053;-68
2021/12/30 02:23:09;;;;;;;0.43;0.43;;;16.90;68.80;;;;;;4970319;28;44022;-68
2021/12/30 02:25:37;;;;;;;0.50;0.50;;;16.90;69.00;;;;;;4969952;28;43956;-68
2021/12/30 02:28:09;;;;;;;0.40;0.40;;;16.80;69.00;;;;;;4968996;28;45180;-69
2021/12/30 02:30:37;;;;;;;0.40;0.40;;;16.80;69.20;;;;;;4970219;28;43360;-69
2021/12/30 02:33:05;;;;;;;0.60;0.60;;;16.80;69.40;;;;;;4970354;28;43536;-69
2021/12/30 02:35:33;;;;;;;0.60;0.60;;;16.80;69.50;;;;;;4969848;28;44035;-68
2021/12/30 02:38:03;;;;;;;0.57;0.57;;;16.70;69.50;;;;;;4969791;28;43390;-69
2021/12/30 02:40:36;;;;;;;0.50;0.50;;;16.70;69.60;;;;;;4969672;28;43909;-68
2021/12/30 02:43:05;;;;;;;0.43;0.43;;;16.70;69.60;;;;;;4970238;28;43966;-69
2021/12/30 02:45:33;;;;;;;0.50;0.50;;;16.70;69.70;;;;;;4969344;28;44041;-68
2021/12/30 02:48:01;;;;;;;0.50;0.50;;;16.70;70.00;;;;;;4969515;28;43508;-68
2021/12/30 02:50:29;;;;;;;0.60;0.60;;;16.70;69.80;;;;;;4968210;28;43978;-70
2021/12/30 02:52:57;;;;;;;0.60;0.60;;;16.90;69.50;;;;;;4969750;28;43572;-68
2021/12/30 02:55:26;;;;;;;0.50;0.50;;;17.00;69.00;;;;;;4969289;28;43949;-69
2021/12/30 02:57:54;;;;;;;0.50;0.50;;;17.20;68.60;;;;;;4969215;28;43805;-69
2021/12/30 03:00:22;;;;;;;0.50;0.50;;;17.20;68.10;;;;;;4969130;28;43440;-69
2021/12/30 03:02:50;;;;;;;0.50;0.50;;;17.20;67.90;;;;;;4969438;28;43960;-69
2021/12/30 03:05:20;;;;;;;0.50;0.50;;;17.20;68.70;;;;;;4969425;28;44704;-68
2021/12/30 03:07:48;;;;;;;0.50;0.50;;;17.10;68.20;;;;;;4962944;28;44049;-68
2021/12/30 03:10:17;;;;;;;0.60;0.60;;;17.00;68.40;;;;;;4963096;28;43416;-69
2021/12/30 03:12:51;;;;;;;0.50;0.50;;;16.90;68.70;;;;;;4963555;28;43674;-69
2021/12/30 03:15:20;;;;;;;0.50;0.50;;;16.90;68.90;;;;;;4948660;28;46341;-69
2021/12/30 03:17:47;;;;;;;0.40;0.40;;;16.90;69.90;;;;;;4949988;28;43342;-68
2021/12/30 03:20:16;;;;;;;0.43;0.43;;;16.80;69.20;;;;;;4948817;28;43899;-68
2021/12/30 03:22:44;;;;;;;0.53;0.53;;;16.80;69.40;;;;;;4950429;28;43877;-69
2021/12/30 03:25:15;;;;;;;0.50;0.50;;;16.80;69.50;;;;;;4949792;28;43894;-68
2021/12/30 03:27:43;;;;;;;0.60;0.60;;;16.70;69.60;;;;;;4950075;28;44023;-68
2021/12/30 03:30:14;;;;;;;0.40;0.40;;;16.80;69.60;;;;;;4964105;28;43966;-68
2021/12/30 03:32:42;;;;;;;0.37;0.37;;;16.90;69.20;;;;;;4968990;28;43729;-69
2021/12/30 03:35:10;;;;;;;0.60;0.60;;;17.00;68.90;;;;;;4960261;28;44118;-68
2021/12/30 03:37:38;;;;;;;0.50;0.50;;;17.00;68.80;;;;;;4950025;28;44077;-70
2021/12/30 03:40:07;;;;;;;0.63;0.63;;;16.90;68.80;;;;;;4950012;28;44042;-70
2021/12/30 03:42:35;;;;;;;0.53;0.53;;;16.90;69.00;;;;;;4950294;28;43515;-69
2021/12/30 03:45:03;;;;;;;0.40;0.40;;;16.80;69.20;;;;;;4949522;28;43931;-69
2021/12/30 03:47:35;;;;;;;0.50;0.50;;;16.80;69.40;;;;;;4948252;28;43951;-69
2021/12/30 03:50:03;;;;;;;0.30;0.30;;;16.70;69.40;;;;;;4949764;28;44029;-69
2021/12/30 03:52:31;;;;;;;0.37;0.37;;;16.70;69.60;;;;;;4949899;28;44096;-69
2021/12/30 03:54:59;;;;;;;0.50;0.50;;;16.70;69.60;;;;;;4949363;28;44954;-70
2021/12/30 03:57:30;;;;;;;0.57;0.57;;;16.70;69.80;;;;;;4949475;28;44168;-68
2021/12/30 03:59:57;;;;;;;0.50;0.50;;;16.70;69.90;;;;;;4949705;28;43824;-68
2021/12/30 04:02:25;;;;;;;0.30;0.30;;;16.70;69.90;;;;;;4949441;28;43948;-69
2021/12/30 04:04:55;;;;;;;0.30;0.30;;;16.60;69.80;;;;;;4949198;28;44016;-69
2021/12/30 04:07:23;;;;;;;0.60;0.60;;;16.60;70.00;;;;;;4949267;28;43983;-68
2021/12/30 04:09:51;;;;;;;0.80;0.80;;;16.70;69.90;;;;;;4949313;28;44077;-68
2021/12/30 04:12:19;;;;;;;0.50;0.50;;;16.80;69.40;;;;;;4949626;28;43864;-68
2021/12/30 04:14:51;;;;;;;0.53;0.53;;;17.00;69.00;;;;;;4949298;28;43899;-69
2021/12/30 04:17:19;;;;;;;0.40;0.40;;;17.20;68.50;;;;;;4949028;28;43859;-69
2021/12/30 04:19:47;;;;;;;0.50;0.50;;;17.30;68.10;;;;;;4948657;28;43979;-70
2021/12/30 04:22:18;;;;;;;0.30;0.30;;;17.30;67.90;;;;;;4949622;28;44173;-69
2021/12/30 04:24:46;;;;;;;0.30;0.30;;;17.20;67.90;;;;;;4949254;28;43831;-69
2021/12/30 04:27:15;;;;;;;0.40;0.40;;;17.20;68.20;;;;;;4949176;28;43385;-68
2021/12/30 04:29:43;;;;;;;0.40;0.40;;;17.10;68.40;;;;;;4949082;28;43923;-69
2021/12/30 04:32:11;;;;;;;0.40;0.40;;;17.00;68.50;;;;;;4949234;28;43896;-68
2021/12/30 04:34:39;;;;;;;0.30;0.30;;;17.00;68.80;;;;;;4948775;28;43977;-69
2021/12/30 04:37:07;;;;;;;0.40;0.40;;;17.00;69.00;;;;;;4948998;28;44033;-69
2021/12/30 04:39:36;;;;;;;0.50;0.50;;;16.90;69.10;;;;;;4949191;28;44065;-69
2021/12/30 04:42:04;;;;;;;0.40;0.40;;;16.90;69.30;;;;;;4949268;28;44229;-68
2021/12/30 04:44:32;;;;;;;0.40;0.40;;;16.80;69.30;;;;;;4947063;28;46298;-69
2021/12/30 04:47:00;;;;;;;0.40;0.40;;;16.80;69.50;;;;;;4948762;28;43929;-69
2021/12/30 04:49:28;;;;;;;0.50;0.50;;;16.80;69.50;;;;;;4948862;28;43967;-69
2021/12/30 04:51:56;;;;;;;0.30;0.30;;;17.00;69.10;;;;;;4948037;28;43533;-69
2021/12/30 04:54:24;;;;;;;0.30;0.30;;;17.00;68.70;;;;;;4948662;28;45138;-68
2021/12/30 04:56:53;;;;;;;0.30;0.30;;;17.00;68.60;;;;;;4948548;28;44026;-68
2021/12/30 04:59:21;;;;;;;0.40;0.40;;;17.00;68.70;;;;;;4947186;28;43450;-69
2021/12/30 05:01:50;;;;;;;0.40;0.40;;;17.00;68.80;;;;;;4948511;28;44115;-69
2021/12/30 05:04:18;;;;;;;0.37;0.37;;;16.90;68.90;;;;;;4946865;28;45644;-69
2021/12/30 05:06:46;;;;;;;0.33;0.33;;;16.90;69.10;;;;;;4947137;28;45094;-69
2021/12/30 05:09:14;;;;;;;0.40;0.40;;;16.80;69.20;;;;;;4948516;28;43915;-69
2021/12/30 05:11:42;;;;;;;0.40;0.40;;;16.80;69.40;;;;;;4948991;28;44097;-69
2021/12/30 05:14:11;;;;;;;0.30;0.30;;;16.80;69.50;;;;;;4948190;28;43928;-69
2021/12/30 05:16:39;;;;;;;0.30;0.30;;;16.70;69.60;;;;;;4948309;28;44040;-69
2021/12/30 05:19:08;;;;;;;0.37;0.37;;;16.70;69.60;;;;;;4947249;28;43975;-68
2021/12/30 05:21:35;;;;;;;0.40;0.40;;;16.70;69.70;;;;;;4949036;28;43941;-69
2021/12/30 05:24:07;;;;;;;0.30;0.30;;;16.70;69.80;;;;;;4948379;28;43947;-68
2021/12/30 05:26:34;;;;;;;0.40;0.40;;;16.70;70.00;;;;;;4961223;28;44027;-68
2021/12/30 05:29:03;;;;;;;0.40;0.40;;;16.80;69.90;;;;;;4961340;28;43428;-69
2021/12/30 05:31:32;;;;;;;0.60;0.60;;;16.90;69.50;;;;;;4967799;28;44217;-70
2021/12/30 05:34:00;;;;;;;0.90;0.90;;;17.10;69.20;;;;;;4973386;28;44286;-70
2021/12/30 05:36:28;;;;;;;0.70;0.70;;;17.20;68.60;;;;;;4973556;28;43742;-69
2021/12/30 05:38:56;;;;;;;0.80;0.80;;;17.30;68.30;;;;;;4973747;28;43413;-69
2021/12/30 05:41:26;;;;;;;0.90;0.90;;;17.20;68.10;;;;;;4973785;28;43589;-69
2021/12/30 05:43:54;;;;;;;0.80;0.80;;;17.20;68.20;;;;;;4987787;28;45460;-69
2021/12/30 05:46:22;;;;;;;1.10;1.10;;;17.10;68.40;;;;;;4987942;28;45930;-69
2021/12/30 05:48:52;;;;;;;1.10;1.10;;;17.10;68.70;;;;;;4973508;28;44074;-69
2021/12/30 05:51:20;;;;;;;1.20;1.20;;;17.00;68.80;;;;;;4973727;28;44184;-69
2021/12/30 05:53:47;;;;;;;1.60;1.50;;;16.90;69.00;;;;;;4973139;28;43874;-69
2021/12/30 05:56:15;;;;;;;1.67;1.57;;;16.90;69.20;;;;;;4973431;28;43896;-68
2021/12/30 05:58:43;;;;;;;1.60;1.53;;;16.90;69.30;;;;;;4987969;28;43977;-68
2021/12/30 06:01:11;;;;;;;2.40;1.53;;;16.80;69.40;;;;;;4972639;28;44049;-69
2021/12/30 06:03:40;;;;;;;2.00;1.50;;;16.80;69.50;;;;;;4972632;28;43967;-69
2021/12/30 06:06:09;;;;;;;1.93;1.83;;;16.80;69.80;;;;;;4972837;28;44025;-69
2021/12/30 06:08:37;;;;;;;1.60;1.50;;;16.90;69.60;;;;;;4973073;28;43972;-69
2021/12/30 06:11:05;;;;;;;1.67;1.57;;;17.00;69.20;;;;;;4973387;28;43828;-69
2021/12/30 06:13:35;;;;;;;1.70;1.60;;;17.00;68.90;;;;;;4972630;28;44004;-68
2021/12/30 06:16:03;;;;;;;2.30;2.10;;;17.00;68.80;;;;;;4972566;28;44011;-69
2021/12/30 06:18:31;;;;;;;1.80;1.70;;;17.00;68.90;;;;;;4972882;28;43976;-69
2021/12/30 06:20:58;;;;;;;1.87;1.77;;;17.00;69.00;;;;;;4971732;28;44009;-68
2021/12/30 06:23:28;;;;;;;2.77;1.90;;;16.90;69.10;;;;;;4953665;28;44094;-69
2021/12/30 06:25:56;;;;;;;2.10;2.00;;;16.90;69.30;;;;;;4954009;28;43898;-69
2021/12/30 06:28:23;;;;;;;1.73;1.63;;;16.90;69.40;;;;;;4952795;28;44033;-68
2021/12/30 06:30:51;;;;;;;1.87;1.77;;;16.80;69.50;;;;;;4954363;28;43541;-68
2021/12/30 06:33:19;;;;;;;1.90;1.80;;;16.80;69.60;;;;;;4952276;28;45007;-68
2021/12/30 06:35:47;;;;;;;2.10;1.93;;;16.80;69.70;;;;;;4954052;28;44073;-69
2021/12/30 06:38:15;;;;;;;2.10;1.90;;;16.80;69.80;;;;;;4953926;28;43446;-68
2021/12/30 06:40:44;;;;;;;2.93;2.23;;;16.80;69.80;;;;;;4952491;28;43927;-69
2021/12/30 06:43:12;;;;;;;2.27;2.07;;;16.80;70.00;;;;;;4950086;28;43889;-69
2021/12/30 06:45:40;;;;;;;2.30;2.10;;;16.80;70.00;;;;;;4950010;28;43457;-69
2021/12/30 06:48:13;;;;;;;2.47;2.27;;;16.90;69.70;;;;;;4950542;28;43927;-69
2021/12/30 06:50:41;;;;;;;2.17;1.97;;;17.00;69.30;;;;;;4951079;28;43935;-68
2021/12/30 06:53:09;;;;;;;2.97;2.00;;;17.20;68.90;;;;;;4948847;28;45745;-69
2021/12/30 06:55:37;;;;;;;2.30;2.20;;;17.20;68.30;;;;;;4950399;28;43820;-69
2021/12/30 06:58:06;;;;;;;2.10;2.00;;;17.30;68.20;;;;;;4949300;28;44055;-69
2021/12/30 07:00:34;;;;;;;2.53;2.00;;;17.20;68.20;;;;;;4950388;28;43891;-68
2021/12/30 07:03:02;;;;;;;2.00;1.90;;;17.10;68.40;;;;;;4948806;28;45051;-69
2021/12/30 07:05:30;;;;;;;2.93;2.10;;;17.10;68.70;;;;;;4950108;28;44070;-69
2021/12/30 07:07:58;;;;;;;2.77;2.03;;;17.00;68.90;;;;;;4950420;28;44084;-69
2021/12/30 07:10:27;;;;;;;2.53;1.80;;;16.90;69.10;;;;;;4950651;28;43935;-69
2021/12/30 07:12:55;;;;;;;2.13;2.00;;;16.90;69.30;;;;;;4948681;28;47492;-69
2021/12/30 07:15:24;;;;;;;2.43;2.23;;;16.90;69.50;;;;;;4948541;28;44680;-69
2021/12/30 07:17:55;;;;;;;2.30;2.10;;;16.80;69.50;;;;;;4950341;28;43429;-69
2021/12/30 07:20:23;;;;;;;1.83;1.73;;;16.80;69.70;;;;;;4950503;28;43931;-68
2021/12/30 07:22:51;;;;;;;2.40;2.30;;;16.80;69.90;;;;;;4950057;28;43906;-68
2021/12/30 07:25:19;;;;;;;1.90;1.80;;;16.90;69.90;;;;;;4949682;28;44135;-69
2021/12/30 07:27:48;;;;;;;2.30;2.00;;;16.90;69.40;;;;;;4949999;28;44031;-69
2021/12/30 07:30:16;;;;;;;1.90;1.80;;;17.00;69.10;;;;;;4950262;28;43381;-68
2021/12/30 07:32:45;;;;;;;2.20;2.10;;;17.00;68.90;;;;;;4953554;28;44062;-69
2021/12/30 07:35:14;;;;;;;2.87;2.13;;;17.00;68.90;;;;;;4951661;28;43901;-69
2021/12/30 07:37:43;;;;;;;1.97;1.87;;;17.00;69.00;;;;;;4950051;28;43876;-69
2021/12/30 07:40:11;;;;;;;2.30;2.10;;;16.90;69.10;;;;;;4949858;28;43990;-69
2021/12/30 07:42:39;;;;;;;2.13;1.90;;;16.90;69.30;;;;;;4949309;28;43942;-68
2021/12/30 07:45:09;;;;;;;2.40;2.10;;;16.90;69.50;;;;;;4949258;28;43888;-69
2021/12/30 07:47:37;;;;;;;1.80;1.70;;;16.90;69.50;;;;;;4949519;28;44027;-68
2021/12/30 07:50:07;;;;;;;1.90;1.80;;;16.80;69.50;;;;;;4950000;28;43956;-69
2021/12/30 07:52:36;;;;;;;1.87;1.77;;;16.80;69.70;;;;;;4948830;28;43910;-68
2021/12/30 07:55:05;;;;;;;2.00;1.90;;;16.80;69.80;;;;;;4947433;28;45151;-69
2021/12/30 07:57:33;;;;;;;2.10;2.00;;;16.80;69.80;;;;;;4949466;28;44098;-69
2021/12/30 08:00:01;;;;;;;2.57;2.37;;;16.80;69.80;;;;;;4948383;28;44056;-69
2021/12/30 08:02:40;;;;;;;3.83;2.40;;;16.80;70.10;;;;;;4961593;28;43717;-69
2021/12/30 08:05:10;;;;;;;2.33;2.23;;;16.90;69.90;;;;;;4967380;28;44022;-69
2021/12/30 08:07:38;;;;;;;1.87;1.77;;;17.00;69.40;;;;;;4967952;28;43939;-68
2021/12/30 08:10:10;;;;;;;2.03;1.93;;;17.20;69.00;;;;;;4968114;28;43962;-69
2021/12/30 08:12:38;;;;;;;2.23;2.03;;;17.30;68.60;;;;;;4967762;28;44949;-69
2021/12/30 08:15:07;;;;;;;2.13;1.97;;;17.30;68.10;;;;;;4967514;28;44030;-69
2021/12/30 08:17:35;;;;;;;2.70;2.27;;;17.30;68.00;;;;;;4967744;28;44045;-68
2021/12/30 08:20:04;;;;;;;2.10;2.00;;;17.30;68.10;;;;;;4966999;28;44018;-69
2021/12/30 08:22:33;;;;;;;1.97;1.87;;;17.20;68.40;;;;;;4967863;28;45583;-69
2021/12/30 08:25:01;;;;;;;1.97;1.87;;;17.10;68.60;;;;;;4982261;28;43538;-69
2021/12/30 08:27:29;;;;;;;2.70;2.07;;;17.00;68.80;;;;;;4967396;28;43955;-68
2021/12/30 08:29:57;;;;;;;2.20;2.07;;;17.00;69.00;;;;;;4967725;28;43588;-68
2021/12/30 08:32:25;;;;;;;2.43;2.10;;;17.00;69.30;;;;;;4966988;28;43994;-69
2021/12/30 08:34:53;;;;;;;1.97;1.87;;;16.90;69.30;;;;;;4967084;28;44118;-69
2021/12/30 08:37:21;;;;;;;1.93;1.83;;;16.90;69.50;;;;;;4967179;28;43414;-69
2021/12/30 08:39:50;;;;;;;2.00;1.90;;;16.90;69.60;;;;;;4967452;28;44292;-69
2021/12/30 08:42:19;;;;;;;2.40;1.93;;;16.90;69.90;;;;;;4966916;28;43926;-69
2021/12/30 08:44:47;;;;;;;2.30;2.00;;;17.00;69.60;;;;;;4966860;28;43907;-69
2021/12/30 08:47:16;;;;;;;2.37;2.17;;;17.00;69.20;;;;;;4966787;28;44158;-70
2021/12/30 08:49:45;;;;;;;1.90;1.80;;;17.10;69.00;;;;;;4967294;28;44031;-69
2021/12/30 08:52:13;;;;;;;2.73;2.20;;;17.10;68.80;;;;;;4966778;28;44046;-68
2021/12/30 08:54:41;;;;;;;1.90;1.80;;;17.10;69.00;;;;;;4966811;28;43962;-68
2021/12/30 08:57:10;;;;;;;2.30;2.20;;;17.00;69.10;;;;;;4966849;28;43445;-69
2021/12/30 08:59:38;;;;;;;2.10;2.00;;;17.00;69.20;;;;;;4967667;28;43838;-68
2021/12/30 09:02:07;;;;;;;1.97;1.87;;;17.00;69.40;;;;;;4966762;28;44058;-68
2021/12/30 09:04:35;;;;;;;2.30;2.07;;;16.90;69.50;;;;;;4966921;28;43999;-70
2021/12/30 09:07:03;;;;;;;2.10;2.00;;;16.80;69.60;;;;;;4967225;28;43365;-69
2021/12/30 09:09:31;;;;;;;2.10;2.00;;;16.80;69.70;;;;;;4967502;28;43973;-69
2021/12/30 09:11:59;;;;;;;1.80;1.70;;;16.80;69.80;;;;;;4967006;28;44033;-68
2021/12/30 09:14:28;;;;;;;2.00;1.90;;;16.80;69.90;;;;;;4966886;28;43773;-69
2021/12/30 09:16:56;;;;;;;2.07;1.87;;;16.80;69.90;;;;;;4981742;28;44027;-69
2021/12/30 09:19:24;;;;;;;2.30;2.17;;;16.80;70.10;;;;;;4967399;28;43529;-69
2021/12/30 09:21:53;;;;;;;2.03;1.93;;;16.80;70.10;;;;;;4966879;28;43957;-70
2021/12/30 09:24:20;;;;;;;1.90;1.80;;;16.90;69.80;;;;;;4966944;28;43944;-68
2021/12/30 09:26:48;;;;;;;2.13;1.93;;;17.10;69.40;;;;;;4966911;28;43991;-69
2021/12/30 09:29:16;;;;;;;2.40;2.30;;;17.20;68.90;;;;;;4967221;28;44071;-69
2021/12/30 09:31:46;;;;;;;2.17;2.07;;;17.30;68.30;;;;;;4966618;28;44986;-70
2021/12/30 09:34:15;;;;;;;1.83;1.73;;;17.40;68.10;;;;;;4966931;28;44046;-69
2021/12/30 09:36:42;;;;;;;2.00;1.90;;;17.40;68.10;;;;;;4966922;28;43780;-69
2021/12/30 09:39:12;;;;;;;2.07;1.80;;;17.30;68.30;;;;;;4965718;28;44023;-69
2021/12/30 09:41:40;;;;;;;1.87;1.77;;;17.20;68.50;;;;;;4981195;28;46061;-69
2021/12/30 09:44:10;;;;;;;2.00;1.90;;;17.10;68.70;;;;;;4965544;28;46140;-69
2021/12/30 09:46:38;;;;;;;1.77;1.67;;;17.10;69.00;;;;;;4966912;28;44419;-69
2021/12/30 09:49:08;;;;;;;1.57;1.57;;;17.00;69.10;;;;;;4967335;28;44074;-69
2021/12/30 09:51:36;;;;;;;1.70;1.60;;;17.00;69.30;;;;;;4966991;28;44029;-68
2021/12/30 09:54:04;;;;;;;2.00;1.90;;;16.90;69.40;;;;;;4966779;28;44070;-69
2021/12/30 09:56:32;;;;;;;1.97;1.87;;;16.90;69.60;;;;;;4966150;28;43951;-69
2021/12/30 09:59:00;;;;;;;1.87;1.77;;;16.90;69.90;;;;;;4966324;28;43886;-69
2021/12/30 10:01:28;;;;;;;2.03;1.93;;;16.90;69.80;;;;;;4965789;28;44013;-68
2021/12/30 10:03:57;;;;;;;1.90;1.80;;;17.00;69.40;;;;;;4966035;28;43947;-68
2021/12/30 10:06:26;;;;;;;1.90;1.80;;;17.10;69.10;;;;;;4966098;28;43949;-69
2021/12/30 10:08:55;;;;;;;2.00;1.90;;;17.10;68.90;;;;;;4966067;28;44053;-69
2021/12/30 10:11:23;;;;;;;1.90;1.80;;;17.10;68.90;;;;;;4964990;28;47066;-68
2021/12/30 10:13:53;;;;;;;1.80;1.70;;;17.10;69.10;;;;;;4966245;28;44059;-69
2021/12/30 10:16:21;;;;;;;1.67;1.63;;;17.00;69.30;;;;;;4966886;28;44009;-68
2021/12/30 10:18:51;;;;;;;1.93;1.83;;;17.00;70.20;;;;;;4970133;28;43828;-69
2021/12/30 10:21:20;;;;;;;1.63;1.63;;;16.90;69.50;;;;;;4969681;28;44093;-69
2021/12/30 10:23:51;;;;;;;1.80;1.70;;;16.90;69.60;;;;;;4969551;28;43962;-69
2021/12/30 10:26:19;;;;;;;1.80;1.70;;;16.80;69.70;;;;;;4969843;28;43425;-69
2021/12/30 10:28:48;;;;;;;1.77;1.67;;;16.90;69.90;;;;;;4969793;28;43824;-69
2021/12/30 10:31:22;;;;;;;1.63;1.63;;;16.80;69.80;;;;;;4963205;28;43994;-68
2021/12/30 10:33:53;;;;;;;1.43;1.43;;;16.80;69.90;;;;;;4964234;28;44055;-68
2021/12/30 10:36:22;;;;;;;1.60;1.60;;;16.80;69.90;;;;;;4969003;28;43382;-68
2021/12/30 10:38:51;;;;;;;1.50;1.50;;;16.80;70.10;;;;;;4969542;28;43781;-69
2021/12/30 10:41:22;;;;;;;1.60;1.60;;;16.90;70.00;;;;;;4968881;28;43846;-68
2021/12/30 10:43:53;;;;;;;1.43;1.43;;;17.00;69.60;;;;;;4968831;28;44001;-69
2021/12/30 10:46:21;;;;;;;1.70;1.70;;;17.20;69.20;;;;;;4968854;28;44114;-69
2021/12/30 10:49:00;;;;;;;1.80;1.70;;;17.30;68.70;;;;;;4969232;28;43765;-69
2021/12/30 10:51:36;;;;;;;1.53;1.53;;;17.40;68.20;;;;;;4968938;28;44045;-69
2021/12/30 10:54:17;;;;;;;1.40;1.40;;;17.40;68.20;;;;;;4969058;28;43973;-69
2021/12/30 10:56:47;;;;;;;1.80;1.70;;;17.30;68.60;;;;;;4963138;28;44078;-68
2021/12/30 10:59:20;;;;;;;1.80;1.70;;;17.20;68.50;;;;;;4963539;28;43914;-69
2021/12/30 11:01:51;;;;;;;1.50;1.50;;;17.20;68.80;;;;;;4968744;28;44711;-69
2021/12/30 11:04:19;;;;;;;1.90;1.80;;;17.10;69.00;;;;;;4969131;28;43393;-68
2021/12/30 11:06:48;;;;;;;1.60;1.50;;;17.00;69.20;;;;;;4968986;28;43970;-68
2021/12/30 11:09:21;;;;;;;1.53;1.53;;;17.00;69.30;;;;;;4969334;28;44212;-69
2021/12/30 11:11:51;;;;;;;1.83;1.73;;;16.90;69.40;;;;;;4969008;28;43851;-69
2021/12/30 11:14:20;;;;;;;1.90;1.80;;;16.90;69.60;;;;;;4968790;28;44212;-68
2021/12/30 11:17:05;;;;;;;1.60;1.60;;;16.90;69.80;;;;;;4968789;28;43976;-68
2021/12/30 11:19:36;;;;;;;1.63;1.63;;;16.90;69.90;;;;;;4969637;28;43469;-69
2021/12/30 11:22:06;;;;;;;2.43;1.80;;;17.00;69.50;;;;;;4968793;28;44942;-69
2021/12/30 11:24:35;;;;;;;1.37;1.37;;;17.10;69.10;;;;;;4967560;28;44042;-68
2021/12/30 11:27:05;;;;;;;1.70;1.60;;;17.10;68.80;;;;;;4968346;28;44053;-69
2021/12/30 11:29:35;;;;;;;1.50;1.40;;;17.10;68.90;;;;;;4967614;28;44180;-69
2021/12/30 11:32:04;;;;;;;1.60;1.60;;;17.10;69.00;;;;;;4968761;28;44486;-69
2021/12/30 11:34:32;;;;;;;1.53;1.53;;;17.00;69.20;;;;;;4974095;28;44670;-69
2021/12/30 11:37:01;;;;;;;1.90;1.80;;;17.00;69.40;;;;;;4964234;28;44155;-69
2021/12/30 11:39:28;;;;;;;1.50;1.40;;;17.00;69.60;;;;;;4962941;28;43395;-69
2021/12/30 11:42:00;;;;;;;1.57;1.57;;;16.90;69.60;;;;;;4962256;28;43992;-69
2021/12/30 11:44:46;;;;;;;1.80;1.70;;;16.90;69.80;;;;;;4962768;28;44102;-69
2021/12/30 11:47:37;;;;;;;1.40;1.40;;;16.90;69.90;;;;;;4968536;28;43946;-69
2021/12/30 11:50:06;;;;;;;1.60;1.57;;;16.80;69.90;;;;;;4968941;28;43997;-69
2021/12/30 11:52:54;;;;;;;1.33;1.33;;;16.80;70.00;;;;;;4968365;28;43978;-69
2021/12/30 11:55:59;;;;;;;1.40;1.40;;;16.80;70.10;;;;;;4968383;28;44086;-68
2021/12/30 11:58:42;;;;;;;1.60;1.60;;;16.90;70.30;;;;;;4968503;28;43946;-70
2021/12/30 12:01:36;;;;;;;1.77;1.67;;;17.00;70.00;;;;;;4968316;28;44069;-68
2021/12/30 12:04:23;;;;;;;1.57;1.47;;;17.10;69.50;;;;;;4968473;28;44902;-68
2021/12/30 12:07:02;;;;;;;1.60;1.60;;;17.20;69.00;;;;;;4966639;28;45121;-69
2021/12/30 12:09:35;;;;;;;1.40;1.40;;;17.30;68.60;;;;;;4968150;28;44044;-69
2021/12/30 12:12:04;;;;;;;1.60;1.60;;;17.30;68.50;;;;;;4968471;28;44067;-69
2021/12/30 12:14:35;;;;;;;1.20;1.20;;;17.30;68.60;;;;;;4967698;28;44979;-69
2021/12/30 12:17:04;;;;;;;1.43;1.40;;;17.20;68.80;;;;;;4966480;28;45190;-68
2021/12/30 12:19:35;;;;;;;1.27;1.27;;;17.10;69.10;;;;;;4968070;28;44038;-69
2021/12/30 12:22:03;;;;;;;1.23;1.23;;;17.10;69.30;;;;;;4968332;28;43988;-69
2021/12/30 12:24:34;;;;;;;1.20;1.20;;;17.00;69.40;;;;;;4967752;28;45147;-69
2021/12/30 12:27:03;;;;;;;1.30;1.30;;;17.00;69.60;;;;;;4967913;28;44030;-68
2021/12/30 12:29:34;;;;;;;1.30;1.30;;;16.90;69.60;;;;;;4967368;28;44074;-69
2021/12/30 12:32:03;;;;;;;1.40;1.40;;;16.90;69.70;;;;;;4973548;28;43977;-69
2021/12/30 12:34:36;;;;;;;1.50;1.50;;;16.90;69.90;;;;;;4961395;28;43920;-69
2021/12/30 12:37:04;;;;;;;1.53;1.50;;;16.90;70.10;;;;;;4962271;28;44019;-69
2021/12/30 12:39:33;;;;;;;1.57;1.57;;;17.00;69.90;;;;;;4966647;28;43938;-68
2021/12/30 12:42:01;;;;;;;1.53;1.47;;;17.10;69.50;;;;;;4967903;28;43910;-68
2021/12/30 12:44:29;;;;;;;1.47;1.47;;;17.30;69.00;;;;;;4967081;28;43975;-69
2021/12/30 12:47:01;;;;;;;1.40;1.40;;;17.30;68.70;;;;;;4965582;28;45132;-68
2021/12/30 12:49:41;;;;;;;1.30;1.30;;;17.30;68.50;;;;;;4959535;28;44021;-69
2021/12/30 12:52:09;;;;;;;1.20;1.20;;;17.30;68.70;;;;;;4948750;28;43998;-69
2021/12/30 12:54:38;;;;;;;1.30;1.30;;;17.20;68.80;;;;;;4948427;28;45124;-69
2021/12/30 12:57:07;;;;;;;1.60;1.60;;;17.10;69.00;;;;;;4948386;28;43962;-68
2021/12/30 12:59:36;;;;;;;1.30;1.30;;;17.10;69.20;;;;;;4948243;28;44036;-69